sensor_id;sensor_type;location;lat;lon;timestamp;temperature;humidity
25512;DHT22;13414;44.534;18.700;2023-06-22T00:00:21;21.50;99.90
25512;DHT22;13414;44.534;18.700;2023-06-22T00:02:50;21.40;99.90
25512;DHT22;13414;44.534;18.700;2023-06-22T00:05:18;21.30;99.90
25512;DHT22;13414;44.534;18.700;2023-06-22T00:07:45;21.20;99.90
25512;DHT22;13414;44.534;18.700;2023-06-22T00:10:13;21.20;99.90
25512;DHT22;13414;44.534;18.700;2023-06-22T00:12:40;21.10;99.90
25512;DHT22;13414;44.534;18.700;2023-06-22T00:15:08;21.10;99.90
25512;DHT22;13414;44.534;18.700;2023-06-22T00:17:36;21.10;99.90
25512;DHT22;13414;44.534;18.700;2023-06-22T00:20:06;21.00;99.90
25512;DHT22;13414;44.534;18.700;2023-06-22T00:22:34;21.10;99.90
25512;DHT22;13414;44.534;18.700;2023-06-22T00:25:06;21.20;99.90
25512;DHT22;13414;44.534;18.700;2023-06-22T00:27:34;21.10;99.90
25512;DHT22;13414;44.534;18.700;2023-06-22T00:30:02;21.10;99.90
25512;DHT22;13414;44.534;18.700;2023-06-22T00:32:30;21.00;99.90
25512;DHT22;13414;44.534;18.700;2023-06-22T00:34:58;21.10;99.90
25512;DHT22;13414;44.534;18.700;2023-06-22T00:37:27;21.20;99.90
25512;DHT22;13414;44.534;18.700;2023-06-22T00:39:55;21.20;99.90
25512;DHT22;13414;44.534;18.700;2023-06-22T00:42:22;21.10;99.90
25512;DHT22;13414;44.534;18.700;2023-06-22T00:44:50;20.90;99.90
25512;DHT22;13414;44.534;18.700;2023-06-22T00:47:18;20.90;99.90
25512;DHT22;13414;44.534;18.700;2023-06-22T00:49:47;20.90;99.90
25512;DHT22;13414;44.534;18.700;2023-06-22T00:52:17;21.00;99.90
25512;DHT22;13414;44.534;18.700;2023-06-22T00:54:48;21.00;99.90
25512;DHT22;13414;44.534;18.700;2023-06-22T00:57:17;20.90;99.90
25512;DHT22;13414;44.534;18.700;2023-06-22T00:59:47;20.80;99.90
25512;DHT22;13414;44.534;18.700;2023-06-22T01:02:15;20.80;99.90
25512;DHT22;13414;44.534;18.700;2023-06-22T01:04:43;20.90;99.90
25512;DHT22;13414;44.534;18.700;2023-06-22T01:07:22;21.00;99.90
25512;DHT22;13414;44.534;18.700;2023-06-22T01:09:59;20.90;99.90
25512;DHT22;13414;44.534;18.700;2023-06-22T01:12:31;20.90;99.90
25512;DHT22;13414;44.534;18.700;2023-06-22T01:15:05;20.90;99.90
25512;DHT22;13414;44.534;18.700;2023-06-22T01:17:36;20.90;99.90
25512;DHT22;13414;44.534;18.700;2023-06-22T01:20:10;20.90;99.90
25512;DHT22;13414;44.534;18.700;2023-06-22T01:22:46;20.80;99.90
25512;DHT22;13414;44.534;18.700;2023-06-22T01:25:24;20.80;99.90
25512;DHT22;13414;44.534;18.700;2023-06-22T01:27:58;20.80;99.90
25512;DHT22;13414;44.534;18.700;2023-06-22T01:30:31;20.90;99.90
25512;DHT22;13414;44.534;18.700;2023-06-22T01:33:05;20.80;99.90
25512;DHT22;13414;44.534;18.700;2023-06-22T01:35:34;20.70;99.90
25512;DHT22;13414;44.534;18.700;2023-06-22T01:38:01;20.70;99.90
25512;DHT22;13414;44.534;18.700;2023-06-22T01:40:30;20.70;99.90
25512;DHT22;13414;44.534;18.700;2023-06-22T01:43:00;20.80;99.90
25512;DHT22;13414;44.534;18.700;2023-06-22T01:45:29;20.70;99.90
25512;DHT22;13414;44.534;18.700;2023-06-22T01:47:57;20.70;99.90
25512;DHT22;13414;44.534;18.700;2023-06-22T01:50:25;20.70;99.90
25512;DHT22;13414;44.534;18.700;2023-06-22T01:52:52;20.50;99.90
25512;DHT22;13414;44.534;18.700;2023-06-22T01:55:20;20.60;99.90
25512;DHT22;13414;44.534;18.700;2023-06-22T01:57:49;20.60;99.90
25512;DHT22;13414;44.534;18.700;2023-06-22T02:00:20;20.60;99.90
25512;DHT22;13414;44.534;18.700;2023-06-22T02:02:54;20.50;99.90
25512;DHT22;13414;44.534;18.700;2023-06-22T02:05:25;20.40;99.90
25512;DHT22;13414;44.534;18.700;2023-06-22T02:08:00;20.30;99.90
25512;DHT22;13414;44.534;18.700;2023-06-22T02:10:31;20.20;99.90
25512;DHT22;13414;44.534;18.700;2023-06-22T02:13:00;20.20;99.90
25512;DHT22;13414;44.534;18.700;2023-06-22T02:15:28;20.20;99.90
25512;DHT22;13414;44.534;18.700;2023-06-22T02:17:57;20.20;99.90
25512;DHT22;13414;44.534;18.700;2023-06-22T02:20:25;20.40;99.90
25512;DHT22;13414;44.534;18.700;2023-06-22T02:22:52;20.40;99.90
25512;DHT22;13414;44.534;18.700;2023-06-22T02:25:20;20.30;99.90
25512;DHT22;13414;44.534;18.700;2023-06-22T02:27:47;20.30;99.90
25512;DHT22;13414;44.534;18.700;2023-06-22T02:30:16;20.30;99.90
25512;DHT22;13414;44.534;18.700;2023-06-22T02:32:44;20.30;99.90
25512;DHT22;13414;44.534;18.700;2023-06-22T02:35:16;20.30;99.90
25512;DHT22;13414;44.534;18.700;2023-06-22T02:37:45;20.30;99.90
25512;DHT22;13414;44.534;18.700;2023-06-22T02:40:12;20.30;99.90
25512;DHT22;13414;44.534;18.700;2023-06-22T02:42:41;20.30;99.90
25512;DHT22;13414;44.534;18.700;2023-06-22T02:45:09;20.30;99.90
25512;DHT22;13414;44.534;18.700;2023-06-22T02:47:36;20.30;99.90
25512;DHT22;13414;44.534;18.700;2023-06-22T02:50:05;20.30;99.90
25512;DHT22;13414;44.534;18.700;2023-06-22T02:52:36;20.30;99.90
25512;DHT22;13414;44.534;18.700;2023-06-22T02:55:06;20.30;99.90
25512;DHT22;13414;44.534;18.700;2023-06-22T02:57:35;20.40;99.90
25512;DHT22;13414;44.534;18.700;2023-06-22T03:00:03;20.30;99.90
25512;DHT22;13414;44.534;18.700;2023-06-22T03:02:43;20.30;99.90
25512;DHT22;13414;44.534;18.700;2023-06-22T03:05:11;20.30;99.90
25512;DHT22;13414;44.534;18.700;2023-06-22T03:07:42;20.20;99.90
25512;DHT22;13414;44.534;18.700;2023-06-22T03:10:10;20.20;99.90
25512;DHT22;13414;44.534;18.700;2023-06-22T03:12:39;20.20;99.90
25512;DHT22;13414;44.534;18.700;2023-06-22T03:15:07;20.30;99.90
25512;DHT22;13414;44.534;18.700;2023-06-22T03:17:35;20.30;99.90
25512;DHT22;13414;44.534;18.700;2023-06-22T03:20:04;20.30;99.90
25512;DHT22;13414;44.534;18.700;2023-06-22T03:22:35;20.40;99.90
25512;DHT22;13414;44.534;18.700;2023-06-22T03:25:05;20.50;99.90
25512;DHT22;13414;44.534;18.700;2023-06-22T03:27:38;20.60;99.90
25512;DHT22;13414;44.534;18.700;2023-06-22T03:30:08;20.70;99.90
25512;DHT22;13414;44.534;18.700;2023-06-22T03:32:36;20.70;99.90
25512;DHT22;13414;44.534;18.700;2023-06-22T03:35:06;20.80;99.90
25512;DHT22;13414;44.534;18.700;2023-06-22T03:37:36;20.90;99.90
25512;DHT22;13414;44.534;18.700;2023-06-22T03:40:07;20.90;99.90
25512;DHT22;13414;44.534;18.700;2023-06-22T03:42:36;21.00;99.90
25512;DHT22;13414;44.534;18.700;2023-06-22T03:45:05;21.10;99.90
25512;DHT22;13414;44.534;18.700;2023-06-22T03:47:33;21.20;99.90
25512;DHT22;13414;44.534;18.700;2023-06-22T03:50:00;21.40;99.90
25512;DHT22;13414;44.534;18.700;2023-06-22T03:52:29;21.60;99.90
25512;DHT22;13414;44.534;18.700;2023-06-22T03:54:57;21.70;99.90
25512;DHT22;13414;44.534;18.700;2023-06-22T03:57:25;21.70;99.90
25512;DHT22;13414;44.534;18.700;2023-06-22T03:59:55;22.00;99.90
25512;DHT22;13414;44.534;18.700;2023-06-22T04:02:23;22.40;99.90
25512;DHT22;13414;44.534;18.700;2023-06-22T04:04:51;22.70;99.90
25512;DHT22;13414;44.534;18.700;2023-06-22T04:07:20;23.00;99.90
25512;DHT22;13414;44.534;18.700;2023-06-22T04:09:47;23.40;99.90
25512;DHT22;13414;44.534;18.700;2023-06-22T04:12:16;23.80;99.90
25512;DHT22;13414;44.534;18.700;2023-06-22T04:14:47;24.10;99.90
25512;DHT22;13414;44.534;18.700;2023-06-22T04:17:19;24.40;99.90
25512;DHT22;13414;44.534;18.700;2023-06-22T04:19:47;24.80;99.90
25512;DHT22;13414;44.534;18.700;2023-06-22T04:22:15;25.00;99.90
25512;DHT22;13414;44.534;18.700;2023-06-22T04:24:43;25.50;99.90
25512;DHT22;13414;44.534;18.700;2023-06-22T04:27:11;25.80;99.90
25512;DHT22;13414;44.534;18.700;2023-06-22T04:29:38;26.10;99.90
25512;DHT22;13414;44.534;18.700;2023-06-22T04:32:16;26.40;99.90
25512;DHT22;13414;44.534;18.700;2023-06-22T04:34:45;26.90;99.90
25512;DHT22;13414;44.534;18.700;2023-06-22T04:37:12;27.30;99.90
25512;DHT22;13414;44.534;18.700;2023-06-22T04:39:41;27.60;99.90
25512;DHT22;13414;44.534;18.700;2023-06-22T04:42:09;27.80;99.90
25512;DHT22;13414;44.534;18.700;2023-06-22T04:44:37;27.30;99.90
25512;DHT22;13414;44.534;18.700;2023-06-22T04:47:06;27.20;99.90
25512;DHT22;13414;44.534;18.700;2023-06-22T04:49:36;27.60;99.90
25512;DHT22;13414;44.534;18.700;2023-06-22T04:52:05;27.90;99.90
25512;DHT22;13414;44.534;18.700;2023-06-22T04:54:33;28.10;99.90
25512;DHT22;13414;44.534;18.700;2023-06-22T04:57:01;28.30;99.90
25512;DHT22;13414;44.534;18.700;2023-06-22T04:59:29;28.60;99.90
25512;DHT22;13414;44.534;18.700;2023-06-22T05:01:57;29.00;99.90
25512;DHT22;13414;44.534;18.700;2023-06-22T05:04:25;29.40;99.90
25512;DHT22;13414;44.534;18.700;2023-06-22T05:06:55;29.60;99.90
25512;DHT22;13414;44.534;18.700;2023-06-22T05:09:22;30.00;99.90
25512;DHT22;13414;44.534;18.700;2023-06-22T05:11:51;30.00;99.90
25512;DHT22;13414;44.534;18.700;2023-06-22T05:14:19;30.20;99.90
25512;DHT22;13414;44.534;18.700;2023-06-22T05:16:46;30.40;99.90
25512;DHT22;13414;44.534;18.700;2023-06-22T05:19:14;31.00;99.90
25512;DHT22;13414;44.534;18.700;2023-06-22T05:21:41;31.60;99.90
25512;DHT22;13414;44.534;18.700;2023-06-22T05:24:10;32.50;99.90
25512;DHT22;13414;44.534;18.700;2023-06-22T05:26:37;33.20;99.90
25512;DHT22;13414;44.534;18.700;2023-06-22T05:29:05;33.90;99.90
25512;DHT22;13414;44.534;18.700;2023-06-22T05:31:32;34.50;99.90
25512;DHT22;13414;44.534;18.700;2023-06-22T05:34:00;35.10;99.90
25512;DHT22;13414;44.534;18.700;2023-06-22T05:36:27;35.40;99.90
25512;DHT22;13414;44.534;18.700;2023-06-22T05:38:56;35.70;99.90
25512;DHT22;13414;44.534;18.700;2023-06-22T05:41:26;36.20;99.90
25512;DHT22;13414;44.534;18.700;2023-06-22T05:43:53;36.70;99.90
25512;DHT22;13414;44.534;18.700;2023-06-22T05:46:20;36.80;99.90
25512;DHT22;13414;44.534;18.700;2023-06-22T05:48:48;37.10;99.90
25512;DHT22;13414;44.534;18.700;2023-06-22T05:51:15;37.30;99.90
25512;DHT22;13414;44.534;18.700;2023-06-22T05:53:43;37.30;99.90
25512;DHT22;13414;44.534;18.700;2023-06-22T05:56:15;37.30;99.90
25512;DHT22;13414;44.534;18.700;2023-06-22T05:58:45;37.50;99.90
25512;DHT22;13414;44.534;18.700;2023-06-22T06:01:12;36.80;99.90
25512;DHT22;13414;44.534;18.700;2023-06-22T06:03:41;36.80;99.90
25512;DHT22;13414;44.534;18.700;2023-06-22T06:06:08;36.30;99.90
25512;DHT22;13414;44.534;18.700;2023-06-22T06:08:36;35.40;99.90
25512;DHT22;13414;44.534;18.700;2023-06-22T06:11:05;35.80;99.90
25512;DHT22;13414;44.534;18.700;2023-06-22T06:13:32;35.90;99.90
25512;DHT22;13414;44.534;18.700;2023-06-22T06:16:01;36.20;99.90
25512;DHT22;13414;44.534;18.700;2023-06-22T06:18:29;35.60;99.90
25512;DHT22;13414;44.534;18.700;2023-06-22T06:20:57;34.90;99.90
25512;DHT22;13414;44.534;18.700;2023-06-22T06:23:24;33.00;99.90
25512;DHT22;13414;44.534;18.700;2023-06-22T06:25:52;31.80;99.90
25512;DHT22;13414;44.534;18.700;2023-06-22T06:28:19;31.30;99.90
25512;DHT22;13414;44.534;18.700;2023-06-22T06:30:46;31.50;99.90
25512;DHT22;13414;44.534;18.700;2023-06-22T06:33:15;31.80;99.90
25512;DHT22;13414;44.534;18.700;2023-06-22T06:35:43;32.20;99.90
25512;DHT22;13414;44.534;18.700;2023-06-22T06:38:10;32.30;99.90
25512;DHT22;13414;44.534;18.700;2023-06-22T06:40:38;32.40;99.90
25512;DHT22;13414;44.534;18.700;2023-06-22T06:43:05;32.30;99.90
25512;DHT22;13414;44.534;18.700;2023-06-22T06:45:33;32.30;99.90
25512;DHT22;13414;44.534;18.700;2023-06-22T06:48:00;32.40;99.90
25512;DHT22;13414;44.534;18.700;2023-06-22T06:50:29;31.50;99.90
25512;DHT22;13414;44.534;18.700;2023-06-22T06:52:57;31.50;99.90
25512;DHT22;13414;44.534;18.700;2023-06-22T06:55:25;31.50;99.90
25512;DHT22;13414;44.534;18.700;2023-06-22T06:57:52;31.50;99.90
25512;DHT22;13414;44.534;18.700;2023-06-22T07:00:20;32.00;99.90
25512;DHT22;13414;44.534;18.700;2023-06-22T07:02:48;32.40;99.90
25512;DHT22;13414;44.534;18.700;2023-06-22T07:05:15;32.50;99.90
25512;DHT22;13414;44.534;18.700;2023-06-22T07:07:44;32.60;99.90
25512;DHT22;13414;44.534;18.700;2023-06-22T07:10:11;32.80;99.90
25512;DHT22;13414;44.534;18.700;2023-06-22T07:12:39;32.70;99.90
25512;DHT22;13414;44.534;18.700;2023-06-22T07:15:08;32.60;99.90
25512;DHT22;13414;44.534;18.700;2023-06-22T07:17:36;32.50;99.90
25512;DHT22;13414;44.534;18.700;2023-06-22T07:20:05;32.50;99.90
25512;DHT22;13414;44.534;18.700;2023-06-22T07:22:36;32.60;99.90
25512;DHT22;13414;44.534;18.700;2023-06-22T07:25:06;32.60;99.90
25512;DHT22;13414;44.534;18.700;2023-06-22T07:27:37;32.70;99.90
25512;DHT22;13414;44.534;18.700;2023-06-22T07:30:06;32.50;99.90
25512;DHT22;13414;44.534;18.700;2023-06-22T07:32:34;32.40;99.90
25512;DHT22;13414;44.534;18.700;2023-06-22T07:35:02;31.90;99.90
25512;DHT22;13414;44.534;18.700;2023-06-22T07:37:30;31.00;99.90
25512;DHT22;13414;44.534;18.700;2023-06-22T07:39:59;31.30;99.90
25512;DHT22;13414;44.534;18.700;2023-06-22T07:42:28;31.80;99.90
25512;DHT22;13414;44.534;18.700;2023-06-22T07:44:58;32.20;99.90
25512;DHT22;13414;44.534;18.700;2023-06-22T07:47:26;32.30;99.90
25512;DHT22;13414;44.534;18.700;2023-06-22T07:49:54;32.60;99.90
25512;DHT22;13414;44.534;18.700;2023-06-22T07:52:24;32.70;99.90
25512;DHT22;13414;44.534;18.700;2023-06-22T07:54:52;32.80;99.90
25512;DHT22;13414;44.534;18.700;2023-06-22T07:57:19;33.10;99.90
25512;DHT22;13414;44.534;18.700;2023-06-22T07:59:48;33.30;99.90
25512;DHT22;13414;44.534;18.700;2023-06-22T08:02:16;33.30;99.90
25512;DHT22;13414;44.534;18.700;2023-06-22T08:04:43;33.10;99.90
25512;DHT22;13414;44.534;18.700;2023-06-22T08:07:11;32.90;99.90
25512;DHT22;13414;44.534;18.700;2023-06-22T08:09:39;32.70;99.90
25512;DHT22;13414;44.534;18.700;2023-06-22T08:12:12;32.70;99.90
25512;DHT22;13414;44.534;18.700;2023-06-22T08:14:42;32.20;99.90
25512;DHT22;13414;44.534;18.700;2023-06-22T08:17:13;31.90;99.90
25512;DHT22;13414;44.534;18.700;2023-06-22T08:19:40;32.00;99.90
25512;DHT22;13414;44.534;18.700;2023-06-22T08:22:08;32.30;99.90
25512;DHT22;13414;44.534;18.700;2023-06-22T08:24:35;32.80;99.90
25512;DHT22;13414;44.534;18.700;2023-06-22T08:27:04;33.20;99.90
25512;DHT22;13414;44.534;18.700;2023-06-22T08:29:34;33.40;99.90
25512;DHT22;13414;44.534;18.700;2023-06-22T08:32:02;33.40;99.90
25512;DHT22;13414;44.534;18.700;2023-06-22T08:34:31;33.40;99.90
25512;DHT22;13414;44.534;18.700;2023-06-22T08:36:58;33.40;99.90
25512;DHT22;13414;44.534;18.700;2023-06-22T08:39:25;33.50;99.90
25512;DHT22;13414;44.534;18.700;2023-06-22T08:41:53;33.50;99.90
25512;DHT22;13414;44.534;18.700;2023-06-22T08:44:21;33.40;99.90
25512;DHT22;13414;44.534;18.700;2023-06-22T08:46:48;33.30;99.90
25512;DHT22;13414;44.534;18.700;2023-06-22T08:49:17;33.10;99.90
25512;DHT22;13414;44.534;18.700;2023-06-22T08:51:50;33.30;99.90
25512;DHT22;13414;44.534;18.700;2023-06-22T08:54:21;33.30;99.90
25512;DHT22;13414;44.534;18.700;2023-06-22T08:56:49;33.50;99.90
25512;DHT22;13414;44.534;18.700;2023-06-22T08:59:22;33.80;99.90
25512;DHT22;13414;44.534;18.700;2023-06-22T09:01:49;33.90;99.90
25512;DHT22;13414;44.534;18.700;2023-06-22T09:04:17;33.80;99.90
25512;DHT22;13414;44.534;18.700;2023-06-22T09:06:44;33.60;99.90
25512;DHT22;13414;44.534;18.700;2023-06-22T09:09:15;33.50;99.90
25512;DHT22;13414;44.534;18.700;2023-06-22T09:11:43;33.60;99.90
25512;DHT22;13414;44.534;18.700;2023-06-22T09:14:11;33.60;99.90
25512;DHT22;13414;44.534;18.700;2023-06-22T09:16:39;33.70;99.90
25512;DHT22;13414;44.534;18.700;2023-06-22T09:19:06;33.70;99.90
25512;DHT22;13414;44.534;18.700;2023-06-22T09:21:34;33.80;99.90
25512;DHT22;13414;44.534;18.700;2023-06-22T09:24:02;34.00;99.90
25512;DHT22;13414;44.534;18.700;2023-06-22T09:26:31;34.10;99.90
25512;DHT22;13414;44.534;18.700;2023-06-22T09:28:59;34.10;99.90
25512;DHT22;13414;44.534;18.700;2023-06-22T09:31:26;34.00;99.90
25512;DHT22;13414;44.534;18.700;2023-06-22T09:33:57;34.00;99.90
25512;DHT22;13414;44.534;18.700;2023-06-22T09:36:24;34.10;99.90
25512;DHT22;13414;44.534;18.700;2023-06-22T09:38:51;33.90;99.90
25512;DHT22;13414;44.534;18.700;2023-06-22T09:41:21;34.10;99.90
25512;DHT22;13414;44.534;18.700;2023-06-22T09:43:51;34.20;99.90
25512;DHT22;13414;44.534;18.700;2023-06-22T09:46:19;34.40;99.90
25512;DHT22;13414;44.534;18.700;2023-06-22T09:48:48;34.40;99.90
25512;DHT22;13414;44.534;18.700;2023-06-22T09:51:15;34.40;99.90
25512;DHT22;13414;44.534;18.700;2023-06-22T09:53:45;34.30;99.90
25512;DHT22;13414;44.534;18.700;2023-06-22T09:56:12;34.40;99.90
25512;DHT22;13414;44.534;18.700;2023-06-22T09:58:43;34.30;99.90
25512;DHT22;13414;44.534;18.700;2023-06-22T10:01:12;34.00;99.90
25512;DHT22;13414;44.534;18.700;2023-06-22T10:03:40;33.90;99.90
25512;DHT22;13414;44.534;18.700;2023-06-22T10:06:08;33.90;99.90
25512;DHT22;13414;44.534;18.700;2023-06-22T10:08:36;33.90;99.90
25512;DHT22;13414;44.534;18.700;2023-06-22T10:11:03;33.90;99.90
25512;DHT22;13414;44.534;18.700;2023-06-22T10:13:31;33.90;99.90
25512;DHT22;13414;44.534;18.700;2023-06-22T10:16:06;33.70;99.90
25512;DHT22;13414;44.534;18.700;2023-06-22T10:18:35;33.70;99.90
25512;DHT22;13414;44.534;18.700;2023-06-22T10:21:03;33.80;99.90
25512;DHT22;13414;44.534;18.700;2023-06-22T10:23:34;33.70;99.90
25512;DHT22;13414;44.534;18.700;2023-06-22T10:26:01;33.60;99.90
25512;DHT22;13414;44.534;18.700;2023-06-22T10:28:29;33.70;99.90
25512;DHT22;13414;44.534;18.700;2023-06-22T10:30:56;33.80;99.90
25512;DHT22;13414;44.534;18.700;2023-06-22T10:33:24;33.80;99.90
25512;DHT22;13414;44.534;18.700;2023-06-22T10:35:53;33.80;99.90
25512;DHT22;13414;44.534;18.700;2023-06-22T10:38:21;33.90;99.90
25512;DHT22;13414;44.534;18.700;2023-06-22T10:40:49;33.90;99.90
25512;DHT22;13414;44.534;18.700;2023-06-22T10:43:17;33.90;99.90
25512;DHT22;13414;44.534;18.700;2023-06-22T10:45:45;34.10;99.90
25512;DHT22;13414;44.534;18.700;2023-06-22T10:48:13;34.20;99.90
25512;DHT22;13414;44.534;18.700;2023-06-22T10:50:41;34.30;99.90
25512;DHT22;13414;44.534;18.700;2023-06-22T10:53:10;34.40;99.90
25512;DHT22;13414;44.534;18.700;2023-06-22T10:55:37;34.30;99.90
25512;DHT22;13414;44.534;18.700;2023-06-22T10:58:04;34.50;99.90
25512;DHT22;13414;44.534;18.700;2023-06-22T11:00:32;34.50;99.90
25512;DHT22;13414;44.534;18.700;2023-06-22T11:02:59;34.60;99.90
25512;DHT22;13414;44.534;18.700;2023-06-22T11:05:27;34.60;99.90
25512;DHT22;13414;44.534;18.700;2023-06-22T11:07:54;34.50;99.90
25512;DHT22;13414;44.534;18.700;2023-06-22T11:10:23;34.40;99.90
25512;DHT22;13414;44.534;18.700;2023-06-22T11:12:52;34.40;99.90
25512;DHT22;13414;44.534;18.700;2023-06-22T11:15:21;34.50;99.90
25512;DHT22;13414;44.534;18.700;2023-06-22T11:17:48;34.50;99.90
25512;DHT22;13414;44.534;18.700;2023-06-22T11:20:16;34.30;99.90
25512;DHT22;13414;44.534;18.700;2023-06-22T11:22:43;34.20;99.90
25512;DHT22;13414;44.534;18.700;2023-06-22T11:25:11;34.20;99.90
25512;DHT22;13414;44.534;18.700;2023-06-22T11:27:40;34.30;99.90
25512;DHT22;13414;44.534;18.700;2023-06-22T11:30:08;34.20;99.90
25512;DHT22;13414;44.534;18.700;2023-06-22T11:32:36;34.00;99.90
25512;DHT22;13414;44.534;18.700;2023-06-22T11:35:04;34.00;99.90
25512;DHT22;13414;44.534;18.700;2023-06-22T11:37:31;34.00;99.90
25512;DHT22;13414;44.534;18.700;2023-06-22T11:39:59;34.10;99.90
25512;DHT22;13414;44.534;18.700;2023-06-22T11:42:26;34.20;99.90
25512;DHT22;13414;44.534;18.700;2023-06-22T11:44:55;34.20;99.90
25512;DHT22;13414;44.534;18.700;2023-06-22T11:47:23;34.20;99.90
25512;DHT22;13414;44.534;18.700;2023-06-22T11:49:51;34.20;99.90
25512;DHT22;13414;44.534;18.700;2023-06-22T11:52:18;34.10;99.90
25512;DHT22;13414;44.534;18.700;2023-06-22T11:54:46;34.10;99.90
25512;DHT22;13414;44.534;18.700;2023-06-22T11:57:13;34.20;99.90
25512;DHT22;13414;44.534;18.700;2023-06-22T11:59:41;34.40;99.90
25512;DHT22;13414;44.534;18.700;2023-06-22T12:02:10;34.50;99.90
25512;DHT22;13414;44.534;18.700;2023-06-22T12:04:38;34.40;99.90
25512;DHT22;13414;44.534;18.700;2023-06-22T12:07:05;34.40;99.90
25512;DHT22;13414;44.534;18.700;2023-06-22T12:09:33;34.40;99.90
25512;DHT22;13414;44.534;18.700;2023-06-22T12:12:00;34.30;99.90
25512;DHT22;13414;44.534;18.700;2023-06-22T12:14:27;34.20;99.90
25512;DHT22;13414;44.534;18.700;2023-06-22T12:16:55;34.20;99.90
25512;DHT22;13414;44.534;18.700;2023-06-22T12:19:24;34.10;99.90
25512;DHT22;13414;44.534;18.700;2023-06-22T12:21:51;34.10;99.90
25512;DHT22;13414;44.534;18.700;2023-06-22T12:24:19;34.10;99.90
25512;DHT22;13414;44.534;18.700;2023-06-22T12:26:46;34.10;99.90
25512;DHT22;13414;44.534;18.700;2023-06-22T12:29:14;34.20;99.90
25512;DHT22;13414;44.534;18.700;2023-06-22T12:31:41;34.20;99.90
25512;DHT22;13414;44.534;18.700;2023-06-22T12:34:08;34.20;99.90
25512;DHT22;13414;44.534;18.700;2023-06-22T12:36:37;34.20;99.90
25512;DHT22;13414;44.534;18.700;2023-06-22T12:39:05;34.10;99.90
25512;DHT22;13414;44.534;18.700;2023-06-22T12:41:32;34.10;99.90
25512;DHT22;13414;44.534;18.700;2023-06-22T12:43:59;34.10;99.90
25512;DHT22;13414;44.534;18.700;2023-06-22T12:46:27;34.20;99.90
25512;DHT22;13414;44.534;18.700;2023-06-22T12:48:56;34.10;99.90
25512;DHT22;13414;44.534;18.700;2023-06-22T12:51:24;34.20;99.90
25512;DHT22;13414;44.534;18.700;2023-06-22T12:53:52;34.20;99.90
25512;DHT22;13414;44.534;18.700;2023-06-22T12:56:20;34.20;99.90
25512;DHT22;13414;44.534;18.700;2023-06-22T12:58:48;34.10;99.90
25512;DHT22;13414;44.534;18.700;2023-06-22T13:01:16;34.10;99.90
25512;DHT22;13414;44.534;18.700;2023-06-22T13:03:44;34.20;99.90
25512;DHT22;13414;44.534;18.700;2023-06-22T13:06:11;34.30;99.90
25512;DHT22;13414;44.534;18.700;2023-06-22T13:08:38;34.00;99.90
25512;DHT22;13414;44.534;18.700;2023-06-22T13:11:07;33.90;99.90
25512;DHT22;13414;44.534;18.700;2023-06-22T13:13:35;34.00;99.90
25512;DHT22;13414;44.534;18.700;2023-06-22T13:16:02;34.00;99.90
25512;DHT22;13414;44.534;18.700;2023-06-22T13:18:30;34.00;99.90
25512;DHT22;13414;44.534;18.700;2023-06-22T13:20:57;34.20;99.90
25512;DHT22;13414;44.534;18.700;2023-06-22T13:23:26;34.20;99.90
25512;DHT22;13414;44.534;18.700;2023-06-22T13:25:53;34.20;99.90
25512;DHT22;13414;44.534;18.700;2023-06-22T13:28:22;34.20;99.90
25512;DHT22;13414;44.534;18.700;2023-06-22T13:30:50;34.20;99.90
25512;DHT22;13414;44.534;18.700;2023-06-22T13:33:17;34.30;99.90
25512;DHT22;13414;44.534;18.700;2023-06-22T13:35:45;34.40;99.90
25512;DHT22;13414;44.534;18.700;2023-06-22T13:38:12;34.50;99.90
25512;DHT22;13414;44.534;18.700;2023-06-22T13:40:40;34.40;99.90
25512;DHT22;13414;44.534;18.700;2023-06-22T13:43:07;34.30;99.90
25512;DHT22;13414;44.534;18.700;2023-06-22T13:45:36;34.30;99.90
25512;DHT22;13414;44.534;18.700;2023-06-22T13:48:04;34.30;99.90
25512;DHT22;13414;44.534;18.700;2023-06-22T13:50:31;34.30;99.90
25512;DHT22;13414;44.534;18.700;2023-06-22T13:52:59;34.20;99.90
25512;DHT22;13414;44.534;18.700;2023-06-22T13:55:27;34.30;99.90
25512;DHT22;13414;44.534;18.700;2023-06-22T13:57:54;34.20;99.90
25512;DHT22;13414;44.534;18.700;2023-06-22T14:00:21;34.20;99.90
25512;DHT22;13414;44.534;18.700;2023-06-22T14:02:51;34.10;99.90
25512;DHT22;13414;44.534;18.700;2023-06-22T14:05:18;34.10;99.90
25512;DHT22;13414;44.534;18.700;2023-06-22T14:07:46;34.10;99.90
25512;DHT22;13414;44.534;18.700;2023-06-22T14:10:13;34.20;99.90
25512;DHT22;13414;44.534;18.700;2023-06-22T14:12:40;34.30;99.90
25512;DHT22;13414;44.534;18.700;2023-06-22T14:15:08;34.40;99.90
25512;DHT22;13414;44.534;18.700;2023-06-22T14:17:35;34.40;99.90
25512;DHT22;13414;44.534;18.700;2023-06-22T14:20:06;34.30;99.90
25512;DHT22;13414;44.534;18.700;2023-06-22T14:22:34;34.20;99.90
25512;DHT22;13414;44.534;18.700;2023-06-22T14:25:02;34.10;99.90
25512;DHT22;13414;44.534;18.700;2023-06-22T14:27:30;34.10;99.90
25512;DHT22;13414;44.534;18.700;2023-06-22T14:29:58;34.10;99.90
25512;DHT22;13414;44.534;18.700;2023-06-22T14:32:27;34.00;99.90
25512;DHT22;13414;44.534;18.700;2023-06-22T14:34:55;34.10;99.90
25512;DHT22;13414;44.534;18.700;2023-06-22T14:37:24;34.10;99.90
25512;DHT22;13414;44.534;18.700;2023-06-22T14:39:52;34.10;99.90
25512;DHT22;13414;44.534;18.700;2023-06-22T14:42:19;34.10;99.90
25512;DHT22;13414;44.534;18.700;2023-06-22T14:44:48;34.10;99.90
25512;DHT22;13414;44.534;18.700;2023-06-22T14:47:15;34.00;99.90
25512;DHT22;13414;44.534;18.700;2023-06-22T14:49:45;34.00;99.90
25512;DHT22;13414;44.534;18.700;2023-06-22T14:52:14;34.00;99.90
25512;DHT22;13414;44.534;18.700;2023-06-22T14:54:43;34.10;99.90
25512;DHT22;13414;44.534;18.700;2023-06-22T14:57:10;34.20;99.90
25512;DHT22;13414;44.534;18.700;2023-06-22T14:59:37;34.10;99.90
25512;DHT22;13414;44.534;18.700;2023-06-22T15:02:05;33.90;99.90
25512;DHT22;13414;44.534;18.700;2023-06-22T15:04:33;33.80;99.90
25512;DHT22;13414;44.534;18.700;2023-06-22T15:07:01;33.90;99.90
25512;DHT22;13414;44.534;18.700;2023-06-22T15:09:29;33.90;99.90
25512;DHT22;13414;44.534;18.700;2023-06-22T15:11:58;33.90;99.90
25512;DHT22;13414;44.534;18.700;2023-06-22T15:14:27;34.00;99.90
25512;DHT22;13414;44.534;18.700;2023-06-22T15:16:55;34.00;99.90
25512;DHT22;13414;44.534;18.700;2023-06-22T15:19:23;34.10;99.90
25512;DHT22;13414;44.534;18.700;2023-06-22T15:21:50;34.10;99.90